createdAt,value
2023-03-27T00:01:30.656Z,69.15
2023-03-27T00:03:58.688Z,68.69
2023-03-27T00:06:27.274Z,68.60
2023-03-27T00:08:55.135Z,68.99
2023-03-27T00:11:25.062Z,69.47
2023-03-27T00:13:56.169Z,68.77
2023-03-27T00:16:26.738Z,68.70
2023-03-27T00:18:55.903Z,69.50
2023-03-27T00:21:24.486Z,69.24
2023-03-27T00:23:52.665Z,69.91
2023-03-27T00:26:22.172Z,70.08
2023-03-27T00:28:49.969Z,71.94
2023-03-27T00:31:18.060Z,71.62
2023-03-27T00:33:46.071Z,71.11
2023-03-27T00:36:15.447Z,72.80
2023-03-27T00:38:45.882Z,72.26
2023-03-27T00:41:14.086Z,72.78
2023-03-27T00:43:44.293Z,72.22
2023-03-27T00:46:31.990Z,71.64
2023-03-27T00:49:04.754Z,71.55
2023-03-27T00:51:34.328Z,72.75
2023-03-27T00:54:02.367Z,72.31
2023-03-27T00:56:30.857Z,72.51
2023-03-27T00:59:03.715Z,72.91
2023-03-27T01:01:32.399Z,73.12
2023-03-27T01:04:07.542Z,73.06
2023-03-27T01:06:37.203Z,72.90
2023-03-27T01:09:05.164Z,73.25
2023-03-27T01:11:59.342Z,72.98
2023-03-27T01:14:46.112Z,72.86
2023-03-27T01:17:26.204Z,73.00
2023-03-27T01:20:06.169Z,73.63
2023-03-27T01:22:49.411Z,73.52
2023-03-27T01:25:50.890Z,73.75
2023-03-27T01:28:46.669Z,74.25
2023-03-27T01:31:28.780Z,74.52
2023-03-27T01:34:15.412Z,74.44
2023-03-27T01:36:55.804Z,73.96
2023-03-27T01:39:40.224Z,74.21
2023-03-27T01:42:20.440Z,74.13
2023-03-27T01:45:02.107Z,74.14
2023-03-27T01:47:53.391Z,73.87
2023-03-27T01:50:54.435Z,73.55
2023-03-27T01:53:28.734Z,73.85
2023-03-27T01:56:08.218Z,73.97
2023-03-27T01:58:46.649Z,74.28
2023-03-27T02:01:29.802Z,74.25
2023-03-27T02:04:02.922Z,74.00
2023-03-27T02:06:37.219Z,74.16
2023-03-27T02:09:08.685Z,74.06
2023-03-27T02:11:58.414Z,73.48
2023-03-27T02:14:36.059Z,72.90
2023-03-27T02:17:13.959Z,72.26
2023-03-27T02:19:53.389Z,72.64
2023-03-27T02:22:37.602Z,72.91
2023-03-27T02:25:24.570Z,72.81
2023-03-27T02:28:04.135Z,72.77
2023-03-27T02:30:54.047Z,72.18
2023-03-27T02:33:55.670Z,72.08
2023-03-27T02:36:46.144Z,72.55
2023-03-27T02:39:37.319Z,73.00
2023-03-27T02:42:30.659Z,73.49
2023-03-27T02:45:10.428Z,73.57
2023-03-27T02:47:52.048Z,73.78
2023-03-27T02:50:56.753Z,74.16
2023-03-27T02:53:30.323Z,74.31
2023-03-27T02:56:03.825Z,74.02
2023-03-27T02:58:47.495Z,74.85
2023-03-27T03:01:32.886Z,74.58
2023-03-27T03:04:10.745Z,75.33
2023-03-27T03:07:06.501Z,75.40
2023-03-27T03:09:40.298Z,75.19
2023-03-27T03:12:09.940Z,74.87
2023-03-27T03:14:46.632Z,74.97
2023-03-27T03:17:16.595Z,75.17
2023-03-27T03:19:46.096Z,75.47
2023-03-27T03:22:14.005Z,75.19
2023-03-27T03:24:42.478Z,75.19
2023-03-27T03:27:14.461Z,74.67
2023-03-27T03:30:05.973Z,74.65
2023-03-27T03:32:40.637Z,74.58
2023-03-27T03:35:10.064Z,74.21
2023-03-27T03:37:38.875Z,74.36
2023-03-27T03:40:13.299Z,74.11
2023-03-27T03:42:47.993Z,74.21
2023-03-27T03:45:19.273Z,74.52
2023-03-27T03:47:47.736Z,73.78
2023-03-27T03:50:15.656Z,73.44
2023-03-27T03:52:44.991Z,73.99
2023-03-27T03:55:12.862Z,74.21
2023-03-27T03:57:42.008Z,74.19
2023-03-27T04:00:17.140Z,74.42
2023-03-27T04:02:45.672Z,74.63
2023-03-27T04:05:16.814Z,74.17
2023-03-27T04:07:45.808Z,73.98
2023-03-27T04:10:42.976Z,74.00
2023-03-27T04:13:20.783Z,74.25
2023-03-27T04:16:01.786Z,74.05
2023-03-27T04:18:39.554Z,74.39
2023-03-27T04:21:18.203Z,74.59
2023-03-27T04:23:51.426Z,75.04
2023-03-27T04:26:27.393Z,75.20
2023-03-27T04:29:14.026Z,75.00
2023-03-27T04:32:19.326Z,74.89
2023-03-27T04:35:13.109Z,75.07
2023-03-27T04:37:50.373Z,75.32
2023-03-27T04:40:49.420Z,75.65
2023-03-27T04:43:19.101Z,75.48
2023-03-27T04:45:48.292Z,75.71
2023-03-27T04:48:18.085Z,75.65
2023-03-27T04:50:50.800Z,74.95
2023-03-27T04:53:32.450Z,74.97
2023-03-27T04:56:01.440Z,75.46
2023-03-27T04:58:31.818Z,75.68
2023-03-27T05:01:02.524Z,75.64
2023-03-27T05:03:51.753Z,75.52
2023-03-27T05:06:33.059Z,75.46
2023-03-27T05:09:02.311Z,75.57
2023-03-27T05:11:33.713Z,75.53
2023-03-27T05:14:01.778Z,75.70
2023-03-27T05:16:35.943Z,75.60
2023-03-27T05:19:05.750Z,75.49
2023-03-27T05:21:46.746Z,75.70
2023-03-27T05:24:16.248Z,75.22
2023-03-27T05:26:45.707Z,75.22
2023-03-27T05:29:14.042Z,75.49
2023-03-27T05:31:45.316Z,75.81
2023-03-27T05:34:39.182Z,75.46
2023-03-27T05:37:11.406Z,75.31
2023-03-27T05:39:59.567Z,75.55
2023-03-27T05:42:27.321Z,75.28
2023-03-27T05:44:56.346Z,75.22
2023-03-27T05:47:24.090Z,75.44
2023-03-27T05:49:54.618Z,75.11
2023-03-27T05:52:22.447Z,75.19
2023-03-27T05:54:57.677Z,75.01
2023-03-27T05:57:26.088Z,74.87
2023-03-27T05:59:58.095Z,74.37
2023-03-27T06:02:26.425Z,74.16
2023-03-27T06:05:01.517Z,74.36
2023-03-27T06:07:36.076Z,74.16
2023-03-27T06:10:13.655Z,74.33
2023-03-27T06:13:07.133Z,74.20
2023-03-27T06:15:46.804Z,73.66
2023-03-27T06:18:37.995Z,73.93
2023-03-27T06:21:06.686Z,74.24
2023-03-27T06:23:34.595Z,73.95
2023-03-27T06:26:02.949Z,73.69
2023-03-27T06:28:31.836Z,73.42
2023-03-27T06:30:59.895Z,72.96
2023-03-27T06:33:32.337Z,72.17
2023-03-27T06:36:05.452Z,72.24
2023-03-27T06:38:38.127Z,72.12
2023-03-27T06:41:06.484Z,71.68
2023-03-27T06:44:01.063Z,70.79
2023-03-27T06:46:51.836Z,69.04
2023-03-27T06:49:28.806Z,68.47
2023-03-27T06:51:57.217Z,67.81
2023-03-27T06:54:25.076Z,67.08
2023-03-27T06:56:55.939Z,67.28
2023-03-27T06:59:24.216Z,67.47
2023-03-27T07:01:58.609Z,68.47
2023-03-27T07:04:26.450Z,69.78
2023-03-27T07:07:04.441Z,69.84
2023-03-27T07:09:38.128Z,69.76
2023-03-27T07:12:09.375Z,69.95
2023-03-27T07:14:39.240Z,70.04
2023-03-27T07:17:09.207Z,70.56
2023-03-27T07:19:55.566Z,70.30
2023-03-27T07:22:28.028Z,70.14
2023-03-27T07:24:58.229Z,69.94
2023-03-27T07:27:28.271Z,69.54
2023-03-27T07:30:01.847Z,67.73
2023-03-27T07:32:37.039Z,65.34
2023-03-27T07:35:09.301Z,64.77
2023-03-27T07:37:57.825Z,65.18
2023-03-27T07:40:40.473Z,64.60
2023-03-27T07:43:28.883Z,64.16
2023-03-27T07:45:58.107Z,63.99
2023-03-27T07:48:27.951Z,63.31
2023-03-27T07:51:10.666Z,64.26
2023-03-27T07:53:41.733Z,64.83
2023-03-27T07:56:26.705Z,63.28
2023-03-27T07:59:22.879Z,65.45
2023-03-27T08:01:51.653Z,63.12
2023-03-27T08:04:21.350Z,61.65
2023-03-27T08:07:04.046Z,62.24
2023-03-27T08:09:32.457Z,63.47
2023-03-27T08:12:00.201Z,63.89
2023-03-27T08:14:28.427Z,62.04
2023-03-27T08:17:12.458Z,62.48
2023-03-27T08:19:46.360Z,61.96
2023-03-27T08:22:14.965Z,63.66
2023-03-27T08:25:14.702Z,62.80
2023-03-27T08:27:45.137Z,63.19
2023-03-27T08:30:17.080Z,62.12
2023-03-27T08:32:45.301Z,61.00
2023-03-27T08:35:13.798Z,60.95
2023-03-27T08:37:41.808Z,61.34
2023-03-27T08:40:34.158Z,61.18
2023-03-27T08:43:29.040Z,62.81
2023-03-27T08:46:07.889Z,62.82
2023-03-27T08:48:47.596Z,60.66
2023-03-27T08:51:30.622Z,60.19
2023-03-27T08:54:09.088Z,59.72
2023-03-27T08:56:37.728Z,61.89
2023-03-27T08:59:17.642Z,59.35
2023-03-27T09:02:09.679Z,57.87
2023-03-27T09:04:52.788Z,58.93
2023-03-27T09:07:40.679Z,59.97
2023-03-27T09:10:48.223Z,59.61
2023-03-27T09:13:51.811Z,54.30
2023-03-27T09:16:31.133Z,53.16
2023-03-27T09:19:00.821Z,54.24
2023-03-27T09:21:37.264Z,54.11
2023-03-27T09:24:29.710Z,53.99
2023-03-27T09:27:26.754Z,54.41
2023-03-27T09:30:25.512Z,53.58
2023-03-27T09:33:05.792Z,54.21
2023-03-27T09:35:38.830Z,52.87
2023-03-27T09:38:27.159Z,52.18
2023-03-27T09:41:08.304Z,51.97
2023-03-27T09:43:43.234Z,53.32
2023-03-27T09:46:19.962Z,52.36
2023-03-27T09:49:17.443Z,53.10
2023-03-27T09:51:59.567Z,51.64
2023-03-27T09:54:56.398Z,53.08
2023-03-27T09:57:38.718Z,52.79
2023-03-27T10:00:29.363Z,52.67
2023-03-27T10:03:06.083Z,54.01
2023-03-27T10:05:37.296Z,55.14
2023-03-27T10:08:37.835Z,55.52
2023-03-27T10:11:21.784Z,53.39
2023-03-27T10:13:54.398Z,53.39
2023-03-27T10:16:27.922Z,56.12
2023-03-27T10:19:04.014Z,54.43
2023-03-27T10:21:44.499Z,54.05
2023-03-27T10:24:21.737Z,54.75
2023-03-27T10:27:23.609Z,57.16
2023-03-27T10:30:35.774Z,61.10
2023-03-27T10:33:36.731Z,62.84
2023-03-27T10:36:31.775Z,65.80
2023-03-27T10:39:11.806Z,65.57
2023-03-27T10:41:58.472Z,66.56
2023-03-27T10:44:28.625Z,67.03
2023-03-27T10:46:59.073Z,65.37
2023-03-27T10:49:43.906Z,66.62
2023-03-27T10:52:43.907Z,67.56
2023-03-27T10:55:28.998Z,69.29
2023-03-27T10:58:05.530Z,67.78
2023-03-27T11:00:44.465Z,68.67
2023-03-27T11:03:24.669Z,68.31
2023-03-27T11:06:02.788Z,66.74
2023-03-27T11:08:44.180Z,65.71
2023-03-27T11:11:27.204Z,63.75
2023-03-27T11:14:02.555Z,64.46
2023-03-27T11:16:48.014Z,63.04
2023-03-27T11:19:43.763Z,62.88
2023-03-27T11:22:35.575Z,60.69
2023-03-27T11:25:39.705Z,58.95
2023-03-27T11:28:34.099Z,64.20
2023-03-27T11:31:23.917Z,68.70
2023-03-27T11:34:28.921Z,72.06
2023-03-27T11:37:26.799Z,73.03
2023-03-27T11:40:19.725Z,74.04
2023-03-27T11:42:51.027Z,74.49
2023-03-27T11:45:25.660Z,74.30
2023-03-27T11:48:30.874Z,73.30
2023-03-27T11:51:51.003Z,73.62
2023-03-27T11:54:42.792Z,73.36
2023-03-27T11:57:26.014Z,72.03
2023-03-27T12:00:05.326Z,71.29
2023-03-27T12:02:59.167Z,71.51
2023-03-27T12:05:49.565Z,68.24
2023-03-27T12:08:48.223Z,69.23
2023-03-27T12:11:20.606Z,68.66
2023-03-27T12:14:34.343Z,65.47
2023-03-27T12:17:30.624Z,67.02
2023-03-27T12:20:11.023Z,66.39
2023-03-27T12:23:36.865Z,66.26
2023-03-27T12:27:22.098Z,64.49
2023-03-27T12:30:13.493Z,62.54
2023-03-27T12:33:01.761Z,57.74
2023-03-27T12:35:49.813Z,54.80
2023-03-27T12:38:30.989Z,55.61
2023-03-27T12:41:13.843Z,55.90
2023-03-27T12:44:04.541Z,55.14
2023-03-27T12:46:43.869Z,55.62
2023-03-27T12:49:13.298Z,54.47
2023-03-27T12:51:56.485Z,55.25
2023-03-27T12:55:06.549Z,50.25
2023-03-27T12:57:54.711Z,53.48
2023-03-27T13:00:59.574Z,59.23
2023-03-27T13:03:49.052Z,59.47
2023-03-27T13:06:25.801Z,60.95
2023-03-27T13:09:13.981Z,59.74
2023-03-27T13:12:32.501Z,57.96
2023-03-27T13:15:38.721Z,59.48
2023-03-27T13:18:27.890Z,59.32
2023-03-27T13:21:10.707Z,59.87
2023-03-27T13:24:08.681Z,59.37
2023-03-27T13:26:55.289Z,60.71
2023-03-27T13:29:30.479Z,60.90
2023-03-27T13:32:31.217Z,61.61
2023-03-27T13:35:21.994Z,63.33
2023-03-27T13:37:50.048Z,65.81
2023-03-27T13:40:38.923Z,64.88
2023-03-27T13:43:35.700Z,63.51
2023-03-27T13:46:19.265Z,62.44
2023-03-27T13:49:21.183Z,61.34
2023-03-27T13:52:13.244Z,58.88
2023-03-27T13:54:55.363Z,56.88
2023-03-27T13:57:50.730Z,56.26
2023-03-27T14:00:24.354Z,56.12
2023-03-27T14:03:18.843Z,55.49
2023-03-27T14:06:10.092Z,56.21
2023-03-27T14:09:00.020Z,55.79
2023-03-27T14:12:13.162Z,55.10
2023-03-27T14:14:53.187Z,55.67
2023-03-27T14:17:39.085Z,55.88
2023-03-27T14:20:16.022Z,56.65
2023-03-27T14:23:02.095Z,58.54
2023-03-27T14:25:53.803Z,58.43
2023-03-27T14:28:51.844Z,60.24
2023-03-27T14:31:35.767Z,61.03
2023-03-27T14:34:12.293Z,59.05
2023-03-27T14:36:42.558Z,57.40
2023-03-27T14:39:39.674Z,57.09
2023-03-27T14:42:17.353Z,57.72
2023-03-27T14:44:48.928Z,57.43
2023-03-27T14:47:22.749Z,55.39
2023-03-27T14:49:53.969Z,54.84
2023-03-27T14:52:36.837Z,55.46
2023-03-27T14:55:34.437Z,55.67
2023-03-27T14:58:24.789Z,55.12
2023-03-27T15:00:58.098Z,53.90
2023-03-27T15:03:35.580Z,54.98
2023-03-27T15:06:17.490Z,55.22
2023-03-27T15:08:58.890Z,54.58
2023-03-27T15:11:56.111Z,54.10
2023-03-27T15:14:30.549Z,53.54
2023-03-27T15:17:15.951Z,54.27
2023-03-27T15:20:14.616Z,53.31
2023-03-27T15:22:55.026Z,54.62
2023-03-27T15:26:08.531Z,53.92
2023-03-27T15:28:44.550Z,54.69
2023-03-27T15:31:14.573Z,54.83
2023-03-27T15:34:08.697Z,53.99
2023-03-27T15:36:39.151Z,55.12
2023-03-27T15:39:08.509Z,57.04
2023-03-27T15:41:42.814Z,56.61
2023-03-27T15:44:15.896Z,57.87
2023-03-27T15:46:54.120Z,57.35
2023-03-27T15:49:44.349Z,56.02
2023-03-27T15:52:33.804Z,54.56
2023-03-27T15:55:04.153Z,54.10
2023-03-27T15:57:32.057Z,55.04
2023-03-27T16:00:14.831Z,56.38
2023-03-27T16:02:43.657Z,55.51
2023-03-27T16:05:18.401Z,55.08
2023-03-27T16:07:49.278Z,55.57
2023-03-27T16:10:37.605Z,54.77
2023-03-27T16:13:07.560Z,55.06
2023-03-27T16:15:41.437Z,56.09
2023-03-27T16:18:22.014Z,57.43
2023-03-27T16:20:49.866Z,58.71
2023-03-27T16:23:18.017Z,58.09
2023-03-27T16:25:45.947Z,60.78
2023-03-27T16:28:17.693Z,60.16
2023-03-27T16:30:45.908Z,58.94
2023-03-27T16:33:19.225Z,56.72
2023-03-27T16:35:47.828Z,57.80
2023-03-27T16:38:16.602Z,56.85
2023-03-27T16:40:45.981Z,54.52
2023-03-27T16:43:14.979Z,55.37
2023-03-27T16:45:42.969Z,54.20
2023-03-27T16:48:13.576Z,52.43
2023-03-27T16:50:41.887Z,51.66
2023-03-27T16:53:09.549Z,52.45
2023-03-27T16:55:37.315Z,51.17
2023-03-27T16:58:05.522Z,51.69
2023-03-27T17:00:33.355Z,51.47
2023-03-27T17:03:01.506Z,51.63
2023-03-27T17:05:34.182Z,51.51
2023-03-27T17:08:05.982Z,54.15
2023-03-27T17:10:37.304Z,56.00
2023-03-27T17:13:06.002Z,57.88
2023-03-27T17:15:37.551Z,59.15
2023-03-27T17:18:06.687Z,59.58
2023-03-27T17:20:35.463Z,59.97
2023-03-27T17:23:03.137Z,60.89
2023-03-27T17:25:30.839Z,61.57
2023-03-27T17:27:58.619Z,61.97
2023-03-27T17:30:37.299Z,62.05
2023-03-27T17:33:07.519Z,61.91
2023-03-27T17:35:37.464Z,62.18
2023-03-27T17:38:05.435Z,61.19
2023-03-27T17:40:33.613Z,62.34
2023-03-27T17:43:01.648Z,63.20
2023-03-27T17:45:29.420Z,62.73
2023-03-27T17:47:57.464Z,63.10
2023-03-27T17:50:25.447Z,61.80
2023-03-27T17:52:53.218Z,63.03
2023-03-27T17:55:21.094Z,63.40
2023-03-27T17:57:55.660Z,62.98
2023-03-27T18:00:30.591Z,63.05
2023-03-27T18:02:58.680Z,63.76
2023-03-27T18:05:26.809Z,63.78
2023-03-27T18:07:54.763Z,62.61
2023-03-27T18:10:22.791Z,62.89
2023-03-27T18:12:54.457Z,63.87
2023-03-27T18:15:23.978Z,61.84
2023-03-27T18:17:52.611Z,62.14
2023-03-27T18:20:23.046Z,62.89
2023-03-27T18:22:51.250Z,64.81
2023-03-27T18:25:19.107Z,63.50
2023-03-27T18:27:46.944Z,63.45
2023-03-27T18:30:16.808Z,62.84
2023-03-27T18:32:46.531Z,63.04
2023-03-27T18:35:18.052Z,64.31
2023-03-27T18:37:47.404Z,63.97
2023-03-27T18:40:18.580Z,64.25
2023-03-27T18:42:46.861Z,65.14
2023-03-27T18:45:16.909Z,65.82
2023-03-27T18:47:45.903Z,65.16
2023-03-27T18:50:15.053Z,64.55
2023-03-27T18:52:43.084Z,64.40
2023-03-27T18:55:13.236Z,64.45
2023-03-27T18:57:41.129Z,65.63
2023-03-27T19:00:10.004Z,66.13
2023-03-27T19:02:37.909Z,65.58
2023-03-27T19:05:06.194Z,65.20
2023-03-27T19:07:33.968Z,65.16
2023-03-27T19:10:01.909Z,64.97
2023-03-27T19:12:37.021Z,64.31
2023-03-27T19:15:40.978Z,65.34
2023-03-27T19:18:30.119Z,65.58
2023-03-27T19:21:33.404Z,64.45
2023-03-27T19:24:05.755Z,64.25
2023-03-27T19:26:40.370Z,63.34
2023-03-27T19:29:08.985Z,63.00
2023-03-27T19:31:37.242Z,62.64
2023-03-27T19:34:05.598Z,62.46
2023-03-27T19:36:34.319Z,62.18
2023-03-27T19:39:02.187Z,62.40
2023-03-27T19:41:30.139Z,61.95
2023-03-27T19:44:00.240Z,63.13
2023-03-27T19:46:29.290Z,62.85
2023-03-27T19:48:58.847Z,62.46
2023-03-27T19:51:43.613Z,62.66
2023-03-27T19:54:14.120Z,64.47
2023-03-27T19:56:42.192Z,64.50
2023-03-27T19:59:13.195Z,64.44
2023-03-27T20:01:48.608Z,64.13
2023-03-27T20:04:16.493Z,64.66
2023-03-27T20:06:47.125Z,66.23
2023-03-27T20:09:15.658Z,65.18
2023-03-27T20:11:43.884Z,65.40
2023-03-27T20:14:12.509Z,66.99
2023-03-27T20:16:40.586Z,66.61
2023-03-27T20:19:09.467Z,66.24
2023-03-27T20:21:39.950Z,65.53
2023-03-27T20:24:13.901Z,66.59
2023-03-27T20:26:48.375Z,68.16
2023-03-27T20:29:24.322Z,67.43
2023-03-27T20:31:52.373Z,68.06
2023-03-27T20:34:22.780Z,67.57
2023-03-27T20:36:53.413Z,69.11
2023-03-27T20:39:47.356Z,68.13
2023-03-27T20:42:17.618Z,68.60
2023-03-27T20:44:46.994Z,70.18
2023-03-27T20:47:19.288Z,69.45
2023-03-27T20:49:49.014Z,69.24
2023-03-27T20:52:19.388Z,71.68
2023-03-27T20:54:47.961Z,71.73
2023-03-27T20:57:18.234Z,69.76
2023-03-27T20:59:48.363Z,70.56
2023-03-27T21:02:18.810Z,70.62
2023-03-27T21:04:47.630Z,70.57
2023-03-27T21:07:16.895Z,70.64
2023-03-27T21:09:47.822Z,70.35
2023-03-27T21:12:16.011Z,69.58
2023-03-27T21:14:43.878Z,70.03
2023-03-27T21:17:14.087Z,70.31
2023-03-27T21:19:43.617Z,70.15
2023-03-27T21:22:12.004Z,70.69
2023-03-27T21:24:41.372Z,69.95
2023-03-27T21:27:09.108Z,70.93
2023-03-27T21:29:37.082Z,71.30
2023-03-27T21:32:06.425Z,71.45
2023-03-27T21:34:34.557Z,70.41
2023-03-27T21:37:02.977Z,70.00
2023-03-27T21:39:34.019Z,71.63
2023-03-27T21:42:01.948Z,70.83
2023-03-27T21:44:29.632Z,70.96
2023-03-27T21:46:57.421Z,71.76
2023-03-27T21:49:25.872Z,70.64
2023-03-27T21:51:53.668Z,71.57
2023-03-27T21:54:21.542Z,70.80
2023-03-27T21:56:49.352Z,70.94
2023-03-27T21:59:17.187Z,72.00
2023-03-27T22:01:45.145Z,72.43
2023-03-27T22:04:12.922Z,71.91
2023-03-27T22:06:40.717Z,72.59
2023-03-27T22:09:08.400Z,72.82
2023-03-27T22:11:36.027Z,73.62
2023-03-27T22:14:03.873Z,72.62
2023-03-27T22:16:31.919Z,72.86
2023-03-27T22:18:59.578Z,72.41
2023-03-27T22:21:29.846Z,73.03
2023-03-27T22:23:59.178Z,72.95
2023-03-27T22:26:34.208Z,73.59
2023-03-27T22:29:02.145Z,73.59
2023-03-27T22:31:30.217Z,72.82
2023-03-27T22:33:58.162Z,73.61
2023-03-27T22:36:25.871Z,72.62
2023-03-27T22:38:53.774Z,73.57
2023-03-27T22:41:21.610Z,74.00
2023-03-27T22:43:49.844Z,73.84
2023-03-27T22:46:21.263Z,73.90
2023-03-27T22:48:56.281Z,74.42
2023-03-27T22:51:25.475Z,73.94
2023-03-27T22:53:53.327Z,74.22
2023-03-27T22:56:21.408Z,74.06
2023-03-27T22:58:49.577Z,74.50
2023-03-27T23:01:17.359Z,74.24
2023-03-27T23:03:45.445Z,74.34
2023-03-27T23:06:20.933Z,74.82
2023-03-27T23:08:50.283Z,74.49
2023-03-27T23:11:18.861Z,74.26
2023-03-27T23:13:47.062Z,74.21
2023-03-27T23:16:15.253Z,74.32
2023-03-27T23:18:43.170Z,74.83
2023-03-27T23:21:13.129Z,74.60
2023-03-27T23:23:41.565Z,74.67
2023-03-27T23:26:10.477Z,74.26
2023-03-27T23:28:41.048Z,74.95
2023-03-27T23:31:13.414Z,74.85
2023-03-27T23:33:43.737Z,74.66
2023-03-27T23:36:14.963Z,75.00
2023-03-27T23:38:43.206Z,74.75
2023-03-27T23:41:13.128Z,75.25
2023-03-27T23:43:40.991Z,74.95
2023-03-27T23:46:10.487Z,75.19
2023-03-27T23:48:40.760Z,74.79
2023-03-27T23:51:09.912Z,75.14
2023-03-27T23:53:37.843Z,74.92
2023-03-27T23:56:05.949Z,74.84
2023-03-27T23:58:34.015Z,75.22
